Khanewal Weather



Khanewal's Current Weather

Temprature 20o smoke

smoke

Rain: 0 %

Min Temprature20o
Max Temprature20o
Humidity56
Wind Speed2.72 m/h
Sun Rise06:23:29
Sun Set17:28:25
Current Time: 28-Oct-2020 07:40:00
Lat/Lon: 30.3, 71.93




Khanewal's Geo Location



Khanewal's Weather Forecast

Time Overall Temp Min Temp Max Temp Humidity Wind Speed Rain
28-Oct-2020 (Wed)
08:00:00 clear sky 21.250 21.250 22.560 38 2.72 m/h 0 %
11:00:00 clear sky 29.670 29.670 32.340 20 4.09 m/h 0 %
14:00:00 clear sky 33.830 33.830 34.780 12 3.93 m/h 0 %
17:00:00 clear sky 30.100 30.100 30.180 13 2.79 m/h 0 %
20:00:00 clear sky 23.260 23.260 23.260 19 2.18 m/h 0 %
23:00:00 clear sky 21.210 21.210 21.210 22 1.48 m/h 0 %
29-Oct-2020 (Thu)
02:00:00 clear sky 20.050 20.050 20.050 24 1.89 m/h 0 %
05:00:00 clear sky 17.560 17.560 17.560 28 0.56 m/h 0 %
08:00:00 clear sky 22.100 22.100 22.100 21 0.82 m/h 0 %
11:00:00 clear sky 31.860 31.860 31.860 12 1.15 m/h 0 %
14:00:00 clear sky 34.380 34.380 34.380 10 2.34 m/h 0 %
17:00:00 clear sky 29.960 29.960 29.960 13 3.41 m/h 0 %
20:00:00 clear sky 23.480 23.480 23.480 19 3.18 m/h 0 %
23:00:00 clear sky 20.280 20.280 20.280 23 1.41 m/h 0 %
30-Oct-2020 (Fri)
02:00:00 clear sky 19.400 19.400 19.400 25 1.47 m/h 0 %
05:00:00 clear sky 18.140 18.140 18.140 27 1.62 m/h 0 %
08:00:00 clear sky 22.460 22.460 22.460 20 2.04 m/h 0 %
11:00:00 clear sky 31.680 31.680 31.680 12 3.36 m/h 0 %
14:00:00 clear sky 34.220 34.220 34.220 10 3.48 m/h 0 %
17:00:00 clear sky 29.580 29.580 29.580 13 3.14 m/h 0 %
20:00:00 clear sky 23.140 23.140 23.140 19 2.3 m/h 0 %
23:00:00 clear sky 21.250 21.250 21.250 22 2.72 m/h 0 %
31-Oct-2020 (Sat)
02:00:00 clear sky 19.960 19.960 19.960 23 2.51 m/h 0 %
05:00:00 clear sky 16.880 16.880 16.880 28 0.3 m/h 0 %
08:00:00 clear sky 22.440 22.440 22.440 20 1.36 m/h 0 %
11:00:00 clear sky 32.460 32.460 32.460 11 1.19 m/h 0 %
14:00:00 clear sky 34.120 34.120 34.120 10 2.78 m/h 0 %
17:00:00 clear sky 29.530 29.530 29.530 13 2.96 m/h 0 %
20:00:00 clear sky 23.440 23.440 23.440 19 2.44 m/h 0 %
23:00:00 clear sky 20.650 20.650 20.650 22 1.31 m/h 0 %
01-Nov-2020 (Sun)
02:00:00 clear sky 18.410 18.410 18.410 25 0.8 m/h 0 %
05:00:00 clear sky 17.970 17.970 17.970 26 1.4 m/h 0 %
08:00:00 clear sky 22.200 22.200 22.200 20 1.73 m/h 0 %
11:00:00 clear sky 31.800 31.800 31.800 11 1.69 m/h 0 %
14:00:00 clear sky 34.350 34.350 34.350 9 2.94 m/h 0 %
17:00:00 clear sky 29.090 29.090 29.090 12 3.1 m/h 0 %
20:00:00 clear sky 22.490 22.490 22.490 19 2.32 m/h 0 %
23:00:00 clear sky 20.150 20.150 20.150 22 1.53 m/h 0 %
02-Nov-2020 (Mon)
02:00:00 clear sky 17.870 17.870 17.870 25 1.38 m/h 0 %
05:00:00 clear sky 16.380 16.380 16.380 28 0.55 m/h 0 %

Famous Cities (60)